Time;durP1;ratioP1;P1;durP2;ratioP2;P2;SDS_P1;SDS_P2;PMS_P1;PMS_P2;Temp;Humidity;BMP_temperature;BMP_pressure;BME280_temperature;BME280_humidity;BME280_pressure;Samples;Min_cycle;Max_cycle;Signal;HPM_P1;HPM_P2
2022/12/15 00:40:10;;;;;;;;;;;-1.90;99.90;;;;;;5021527;28;20310;-75
2022/12/15 00:42:35;;;;;;;;;;;-1.80;99.90;;;;;;5022991;28;19913;-74
2022/12/15 00:45:01;;;;;;;;;;;-1.70;99.90;;;;;;5026972;28;19909;-76
2022/12/15 00:47:26;;;;;;;;;;;-1.70;99.90;;;;;;5025990;28;19917;-74
2022/12/15 01:20:18;;;;;;;;;;;-2.20;99.90;;;;;;5020158;28;19920;-74
2022/12/15 01:22:49;;;;;;;;;;;-2.10;99.90;;;;;;5021454;28;19914;-75
2022/12/15 01:25:16;;;;;;;;;;;-2.10;99.90;;;;;;5028092;28;19928;-75
2022/12/15 01:27:41;;;;;;;;;;;-2.10;99.90;;;;;;5026974;28;19923;-74
2022/12/15 01:30:08;;;;;;;;;;;-2.10;99.90;;;;;;5023560;28;19917;-77
2022/12/15 01:32:35;;;;;;;;;;;-2.20;99.90;;;;;;5025436;28;20455;-75
2022/12/15 01:35:00;;;;;;;;;;;-2.30;99.90;;;;;;5010800;28;20040;-74
2022/12/15 01:37:26;;;;;;;;;;;-2.40;99.90;;;;;;5023849;28;20350;-75
2022/12/15 01:42:35;;;;;;;;;;;-2.40;99.90;;;;;;5025375;28;19920;-75
2022/12/15 01:45:20;;;;;;;;;;;-2.20;99.90;;;;;;5004253;28;19917;-76
2022/12/15 01:47:45;;;;;;;;;;;-2.30;99.90;;;;;;5025003;28;19920;-76
2022/12/15 01:50:14;;;;;;;;;;;-2.30;99.90;;;;;;5023371;28;20137;-75
2022/12/15 01:52:40;;;;;;;;;;;-2.20;99.90;;;;;;5022067;28;19936;-75
2022/12/15 01:55:05;;;;;;;;;;;-2.30;99.90;;;;;;5024373;28;20410;-75
2022/12/15 01:57:31;;;;;;;;;;;-2.40;99.90;;;;;;5023433;28;20284;-74
2022/12/15 02:00:00;;;;;;;;;;;-2.30;99.90;;;;;;5020239;28;19917;-75
2022/12/15 02:02:27;;;;;;;;;;;-2.10;99.90;;;;;;5024789;28;19922;-75
2022/12/15 02:04:55;;;;;;;;;;;-2.10;99.90;;;;;;5023589;28;20417;-75
2022/12/15 02:07:21;;;;;;;;;;;-2.00;99.90;;;;;;5019368;28;20020;-75
2022/12/15 02:09:48;;;;;;;;;;;-2.00;99.90;;;;;;5023723;28;20000;-74
2022/12/15 02:12:19;;;;;;;;;;;-2.00;99.90;;;;;;5025792;28;19936;-75
2022/12/15 02:15:03;;;;;;;;;;;-1.90;99.90;;;;;;5020494;28;20402;-75
2022/12/15 02:17:29;;;;;;;;;;;-2.00;99.90;;;;;;5007380;28;19913;-73
2022/12/15 02:20:03;;;;;;;;;;;-2.10;99.90;;;;;;5010109;28;19920;-74
2022/12/15 02:22:37;;;;;;;;;;;-2.30;99.90;;;;;;5026490;28;19913;-74
2022/12/15 02:25:03;;;;;;;;;;;-2.20;99.90;;;;;;5024164;28;19913;-75
2022/12/15 02:27:38;;;;;;;;;;;-2.40;99.90;;;;;;5027330;28;19916;-75
2022/12/15 02:30:16;;;;;;;;;;;-2.30;99.90;;;;;;5017845;28;20067;-71
2022/12/15 02:32:53;;;;;;;;;;;-2.40;99.90;;;;;;5025555;28;20036;-75
2022/12/15 02:35:27;;;;;;;;;;;-2.40;99.90;;;;;;5023423;28;19952;-75
2022/12/15 02:37:53;;;;;;;;;;;-2.50;99.90;;;;;;5018698;28;19979;-75
2022/12/15 02:40:18;;;;;;;;;;;-2.50;99.90;;;;;;5024863;28;19917;-75
2022/12/15 02:42:45;;;;;;;;;;;-2.40;99.90;;;;;;5017455;28;20731;-74
2022/12/15 02:45:14;;;;;;;;;;;-2.50;99.90;;;;;;5025600;28;19917;-75
2022/12/15 02:47:54;;;;;;;;;;;-2.50;99.90;;;;;;5007204;28;19959;-76
2022/12/15 02:50:22;;;;;;;;;;;-2.40;99.90;;;;;;5019045;28;19932;-76
2022/12/15 02:52:50;;;;;;;;;;;-2.30;99.90;;;;;;5020734;28;20445;-75
2022/12/15 02:55:27;;;;;;;;;;;-2.40;99.90;;;;;;5027479;28;19982;-75
2022/12/15 02:57:53;;;;;;;;;;;-2.40;99.90;;;;;;5020437;28;20478;-74
2022/12/15 03:00:18;;;;;;;;;;;-2.50;99.90;;;;;;5021050;28;20371;-76
2022/12/15 03:02:47;;;;;;;;;;;-2.50;99.90;;;;;;5022544;28;19989;-75
2022/12/15 03:05:13;;;;;;;;;;;-2.50;99.90;;;;;;5019798;28;19917;-75
2022/12/15 03:07:41;;;;;;;;;;;-2.50;99.90;;;;;;5022688;28;20456;-74
2022/12/15 03:10:08;;;;;;;;;;;-2.60;99.90;;;;;;5024435;28;20011;-75
2022/12/15 03:12:33;;;;;;;;;;;-2.60;99.90;;;;;;5025341;28;20383;-74
2022/12/15 03:14:59;;;;;;;;;;;-2.40;99.90;;;;;;5013828;28;19951;-73
2022/12/15 03:17:24;;;;;;;;;;;-2.20;99.90;;;;;;5007282;28;19914;-74
2022/12/15 03:19:49;;;;;;;;;;;-2.20;99.90;;;;;;5025294;28;20381;-75
2022/12/15 03:22:15;;;;;;;;;;;-2.20;99.90;;;;;;5021720;28;19944;-74
2022/12/15 03:24:40;;;;;;;;;;;-2.20;99.90;;;;;;5025877;28;19909;-76
2022/12/15 03:27:06;;;;;;;;;;;-2.20;99.90;;;;;;5020869;28;19921;-75
2022/12/15 03:29:31;;;;;;;;;;;-2.30;99.90;;;;;;5026744;28;20291;-73
2022/12/15 03:31:57;;;;;;;;;;;-2.30;99.90;;;;;;5024989;28;19960;-75
2022/12/15 03:34:22;;;;;;;;;;;-2.20;99.90;;;;;;5013787;28;19917;-76
2022/12/15 03:36:48;;;;;;;;;;;-2.40;99.90;;;;;;5024733;28;20003;-76
2022/12/15 03:39:13;;;;;;;;;;;-2.50;99.90;;;;;;5018196;28;20448;-74
2022/12/15 03:41:40;;;;;;;;;;;-2.50;99.90;;;;;;5021242;28;19917;-75
2022/12/15 03:44:06;;;;;;;;;;;-2.50;99.90;;;;;;5018640;28;19917;-74
2022/12/15 03:46:31;;;;;;;;;;;-2.60;99.90;;;;;;5024422;28;19943;-75
2022/12/15 03:48:57;;;;;;;;;;;-2.60;99.90;;;;;;5022404;28;19987;-75
2022/12/15 03:51:22;;;;;;;;;;;-2.60;99.90;;;;;;5019063;28;19953;-76
2022/12/15 03:53:48;;;;;;;;;;;-2.70;99.90;;;;;;5019531;28;19921;-74
2022/12/15 03:56:14;;;;;;;;;;;-2.50;99.90;;;;;;5024461;28;20531;-76
2022/12/15 03:58:39;;;;;;;;;;;-2.50;99.90;;;;;;5020086;28;19921;-75
2022/12/15 04:01:12;;;;;;;;;;;-2.50;99.90;;;;;;5020492;28;19948;-74
2022/12/15 04:03:37;;;;;;;;;;;-2.50;99.90;;;;;;5018481;28;19940;-75
2022/12/15 04:06:03;;;;;;;;;;;-2.50;99.90;;;;;;5020368;28;19986;-75
2022/12/15 04:08:28;;;;;;;;;;;-2.50;99.90;;;;;;5023029;28;19913;-75
2022/12/15 04:10:54;;;;;;;;;;;-2.50;99.90;;;;;;5019755;28;19948;-74
2022/12/15 04:13:19;;;;;;;;;;;-2.40;99.90;;;;;;5022909;28;19910;-75
2022/12/15 04:15:45;;;;;;;;;;;-2.30;99.90;;;;;;5023401;28;20616;-76
2022/12/15 04:18:10;;;;;;;;;;;-2.30;99.90;;;;;;5021754;28;20078;-74
2022/12/15 04:20:37;;;;;;;;;;;-2.30;99.90;;;;;;5024778;28;19921;-75
2022/12/15 04:23:02;;;;;;;;;;;-2.30;99.90;;;;;;5021674;28;19932;-75
2022/12/15 05:31:53;;;;;;;;;;;-2.50;99.90;;;;;;5028693;28;19990;-75
2022/12/15 05:34:19;;;;;;;;;;;-2.70;99.90;;;;;;5020685;28;19917;-73
2022/12/15 05:36:44;;;;;;;;;;;-2.80;99.90;;;;;;5018679;28;20457;-75
2022/12/15 05:39:10;;;;;;;;;;;-2.90;99.90;;;;;;5024328;28;19960;-74
2022/12/15 05:41:35;;;;;;;;;;;-2.80;99.90;;;;;;5021502;28;19951;-74
2022/12/15 05:44:01;;;;;;;;;;;-2.70;99.90;;;;;;5019770;28;19947;-74
2022/12/15 05:46:26;;;;;;;;;;;-2.50;99.90;;;;;;5023571;28;19959;-74
2022/12/15 05:48:52;;;;;;;;;;;-2.50;99.90;;;;;;5018033;28;19921;-75
2022/12/15 05:51:17;;;;;;;;;;;-2.50;99.90;;;;;;5021368;28;20403;-75
2022/12/15 05:53:42;;;;;;;;;;;-2.50;99.90;;;;;;5027598;28;19913;-75
2022/12/15 05:56:09;;;;;;;;;;;-2.50;99.90;;;;;;5023567;28;19921;-73
2022/12/15 05:58:35;;;;;;;;;;;-2.60;99.90;;;;;;5021310;28;19952;-74
2022/12/15 06:01:02;;;;;;;;;;;-2.70;99.90;;;;;;5021341;28;19948;-74
2022/12/15 06:03:27;;;;;;;;;;;-2.70;99.90;;;;;;5021296;28;20964;-74
2022/12/15 06:05:53;;;;;;;;;;;-2.70;99.90;;;;;;5026379;28;20017;-73
2022/12/15 06:08:18;;;;;;;;;;;-2.80;99.90;;;;;;5022198;28;20804;-74
2022/12/15 06:10:50;;;;;;;;;;;-2.90;99.90;;;;;;5021380;28;20487;-74
2022/12/15 06:13:16;;;;;;;;;;;-3.00;99.90;;;;;;5020516;28;19924;-75
2022/12/15 06:15:41;;;;;;;;;;;-3.00;99.90;;;;;;5009340;28;19918;-74
2022/12/15 06:18:06;;;;;;;;;;;-3.00;99.90;;;;;;5021123;28;19921;-72
2022/12/15 06:20:32;;;;;;;;;;;-3.10;99.90;;;;;;5023881;28;19992;-74
2022/12/15 06:22:57;;;;;;;;;;;-3.10;99.90;;;;;;5022115;28;20402;-73
2022/12/15 06:25:23;;;;;;;;;;;-3.20;99.90;;;;;;5028786;28;20439;-73
2022/12/15 06:27:48;;;;;;;;;;;-3.10;99.90;;;;;;5031308;28;19921;-74
2022/12/15 06:30:15;;;;;;;;;;;-3.10;99.90;;;;;;5013782;28;19913;-74
2022/12/15 06:32:40;;;;;;;;;;;-3.10;99.90;;;;;;5025083;28;19921;-73
2022/12/15 06:35:06;;;;;;;;;;;-3.10;99.90;;;;;;5022446;28;19915;-74
2022/12/15 06:37:31;;;;;;;;;;;-3.20;99.90;;;;;;5022847;28;20012;-73
2022/12/15 06:39:56;;;;;;;;;;;-3.10;99.90;;;;;;5022674;28;19909;-74
2022/12/15 06:42:22;;;;;;;;;;;-3.10;99.90;;;;;;5018423;28;20506;-73
2022/12/15 06:44:47;;;;;;;;;;;-3.10;99.90;;;;;;5019376;28;19913;-72
2022/12/15 06:47:13;;;;;;;;;;;-3.10;99.90;;;;;;5024867;28;19917;-76
2022/12/15 06:49:38;;;;;;;;;;;-3.10;99.90;;;;;;5021806;28;19917;-75
2022/12/15 06:52:04;;;;;;;;;;;-3.00;99.90;;;;;;5021344;28;19916;-74
2022/12/15 06:54:29;;;;;;;;;;;-3.20;99.90;;;;;;5023740;28;19909;-74
2022/12/15 06:56:55;;;;;;;;;;;-3.20;99.90;;;;;;5026873;28;20158;-74
2022/12/15 06:59:20;;;;;;;;;;;-3.20;99.90;;;;;;5025398;28;19985;-73
2022/12/15 07:01:46;;;;;;;;;;;-3.30;99.90;;;;;;5027325;28;19951;-73
2022/12/15 07:04:11;;;;;;;;;;;-3.20;99.90;;;;;;5019719;28;19917;-73
2022/12/15 07:06:37;;;;;;;;;;;-3.20;99.90;;;;;;5025193;28;19913;-74
2022/12/15 07:09:03;;;;;;;;;;;-3.10;99.90;;;;;;5022174;28;20007;-74
2022/12/15 07:11:29;;;;;;;;;;;-3.20;99.90;;;;;;5026502;28;19909;-75
2022/12/15 07:13:54;;;;;;;;;;;-3.20;99.90;;;;;;5019786;28;19921;-76
2022/12/15 07:16:20;;;;;;;;;;;-3.20;99.90;;;;;;5025146;28;20004;-74
2022/12/15 07:18:46;;;;;;;;;;;-3.10;99.90;;;;;;5020491;28;19962;-73
2022/12/15 07:21:11;;;;;;;;;;;-3.20;99.90;;;;;;5022873;28;19909;-74
2022/12/15 07:23:37;;;;;;;;;;;-3.30;99.90;;;;;;5006398;28;19917;-75
2022/12/15 07:26:06;;;;;;;;;;;-3.30;99.90;;;;;;5026270;28;19913;-74
2022/12/15 07:28:32;;;;;;;;;;;-3.20;99.90;;;;;;5018601;28;20334;-74
2022/12/15 07:31:06;;;;;;;;;;;-3.10;99.90;;;;;;5023779;28;19913;-71
2022/12/15 07:33:32;;;;;;;;;;;-3.10;99.90;;;;;;5021399;28;19917;-73
2022/12/15 07:35:58;;;;;;;;;;;-3.00;99.90;;;;;;5022940;28;19925;-71
2022/12/15 07:38:23;;;;;;;;;;;-3.00;99.90;;;;;;5020465;28;20050;-74
2022/12/15 07:40:49;;;;;;;;;;;-3.10;99.90;;;;;;5020128;28;19913;-75
2022/12/15 07:43:15;;;;;;;;;;;-3.00;99.90;;;;;;5020172;28;20008;-74
2022/12/15 07:45:40;;;;;;;;;;;-3.00;99.90;;;;;;5019098;28;19917;-75
2022/12/15 07:48:06;;;;;;;;;;;-3.00;99.90;;;;;;5020268;28;19962;-74
2022/12/15 07:50:31;;;;;;;;;;;-3.00;99.90;;;;;;5019263;28;20459;-73
2022/12/15 07:52:57;;;;;;;;;;;-2.90;99.90;;;;;;5023760;28;19909;-74
2022/12/15 07:55:22;;;;;;;;;;;-2.90;99.90;;;;;;5023620;28;19920;-74
2022/12/15 07:57:48;;;;;;;;;;;-2.90;99.90;;;;;;5024610;28;20003;-72
2022/12/15 08:00:14;;;;;;;;;;;-2.90;99.90;;;;;;5025615;28;20298;-75
2022/12/15 08:02:40;;;;;;;;;;;-2.80;99.90;;;;;;5024190;28;20347;-72
2022/12/15 08:05:06;;;;;;;;;;;-2.80;99.90;;;;;;5026189;28;19913;-73
2022/12/15 08:07:31;;;;;;;;;;;-2.80;99.90;;;;;;5019064;28;19936;-73
2022/12/15 08:09:57;;;;;;;;;;;-2.60;99.90;;;;;;5026635;28;19916;-74
2022/12/15 08:12:22;;;;;;;;;;;-2.50;99.90;;;;;;5021670;28;19913;-73
2022/12/15 08:14:48;;;;;;;;;;;-2.60;99.90;;;;;;5026026;28;19933;-74
2022/12/15 08:17:13;;;;;;;;;;;-2.50;99.90;;;;;;5016305;28;19936;-73
2022/12/15 08:19:39;;;;;;;;;;;-2.70;99.90;;;;;;5024106;28;19913;-73
2022/12/15 08:22:04;;;;;;;;;;;-2.70;99.90;;;;;;5024472;28;20431;-73
2022/12/15 08:24:30;;;;;;;;;;;-2.60;99.90;;;;;;5020668;28;19955;-75
2022/12/15 08:26:55;;;;;;;;;;;-2.60;99.90;;;;;;5025886;28;19924;-74
2022/12/15 08:29:21;;;;;;;;;;;-2.50;99.90;;;;;;5005956;28;20002;-73
2022/12/15 08:31:46;;;;;;;;;;;-2.40;99.90;;;;;;5026056;28;19909;-73
2022/12/15 08:34:11;;;;;;;;;;;-2.40;99.90;;;;;;5006188;28;19909;-73
2022/12/15 08:36:37;;;;;;;;;;;-2.20;99.90;;;;;;5025790;28;20000;-73
2022/12/15 08:39:02;;;;;;;;;;;-2.10;99.90;;;;;;5023820;28;19909;-72
2022/12/15 08:41:29;;;;;;;;;;;-2.10;99.90;;;;;;5020546;28;19973;-74
2022/12/15 08:43:55;;;;;;;;;;;-2.20;99.90;;;;;;5025733;28;19951;-74
2022/12/15 08:46:29;;;;;;;;;;;-2.10;99.90;;;;;;5026873;28;19952;-74
2022/12/15 08:48:54;;;;;;;;;;;-2.00;99.90;;;;;;5024976;28;19913;-74
2022/12/15 08:51:21;;;;;;;;;;;-2.10;99.90;;;;;;5026189;28;20044;-74
2022/12/15 08:53:46;;;;;;;;;;;-2.00;99.90;;;;;;5025226;28;19909;-75
2022/12/15 08:56:14;;;;;;;;;;;-1.90;99.90;;;;;;5023550;28;19916;-73
2022/12/15 08:58:40;;;;;;;;;;;-1.80;99.90;;;;;;5022444;28;20016;-73
2022/12/15 09:01:07;;;;;;;;;;;-1.70;99.90;;;;;;5020875;28;20009;-75
2022/12/15 09:03:33;;;;;;;;;;;-1.60;99.90;;;;;;5024580;28;20015;-74
2022/12/15 09:06:02;;;;;;;;;;;-1.50;99.90;;;;;;5021041;28;19984;-73
2022/12/15 09:08:29;;;;;;;;;;;-1.50;99.90;;;;;;5026222;28;20193;-73
2022/12/15 09:10:58;;;;;;;;;;;-1.50;99.90;;;;;;5011346;28;20005;-75
2022/12/15 09:13:24;;;;;;;;;;;-1.50;99.90;;;;;;5022978;28;20016;-73
2022/12/15 09:15:55;;;;;;;;;;;-1.50;99.90;;;;;;5026054;28;20652;-74
2022/12/15 09:18:21;;;;;;;;;;;-1.40;99.90;;;;;;5026994;28;19931;-72
2022/12/15 09:20:46;;;;;;;;;;;-1.40;99.90;;;;;;5025459;28;20272;-73
2022/12/15 09:23:12;;;;;;;;;;;-1.40;99.90;;;;;;5026452;28;19936;-73
2022/12/15 09:25:37;;;;;;;;;;;-1.30;99.90;;;;;;5028147;28;19921;-72
2022/12/15 09:28:03;;;;;;;;;;;-1.30;99.90;;;;;;5034600;28;19944;-72
2022/12/15 09:30:28;;;;;;;;;;;-1.30;99.90;;;;;;5044056;28;19925;-72
2022/12/15 09:32:54;;;;;;;;;;;-1.30;99.90;;;;;;5035789;28;19973;-73
2022/12/15 09:35:19;;;;;;;;;;;-1.20;99.90;;;;;;5037838;28;19990;-74
2022/12/15 09:37:45;;;;;;;;;;;-1.10;99.90;;;;;;5029816;28;19914;-73
2022/12/15 09:40:11;;;;;;;;;;;-1.00;99.90;;;;;;5037002;28;19924;-74
2022/12/15 09:42:37;;;;;;;;;;;-1.00;99.90;;;;;;5037034;28;19921;-74
2022/12/15 09:45:14;;;;;;;;;;;-1.00;99.90;;;;;;5040377;28;19909;-73
2022/12/15 09:47:57;;;;;;;;;;;-0.90;99.90;;;;;;5043079;28;20004;-72
2022/12/15 09:50:33;;;;;;;;;;;-0.80;99.90;;;;;;5025530;28;19952;-73
2022/12/15 09:52:59;;;;;;;;;;;-0.70;99.90;;;;;;5041316;28;19913;-73
2022/12/15 09:55:26;;;;;;;;;;;-0.50;99.90;;;;;;5042302;28;19948;-74
2022/12/15 09:57:53;;;;;;;;;;;-0.50;99.90;;;;;;5024465;28;20028;-72
2022/12/15 10:00:23;;;;;;;;;;;-0.30;99.90;;;;;;5044022;28;19945;-73
2022/12/15 10:02:48;;;;;;;;;;;-0.20;99.90;;;;;;5037969;28;19917;-72
2022/12/15 10:05:32;;;;;;;;;;;-0.20;99.90;;;;;;5037024;28;19909;-74
2022/12/15 10:07:58;;;;;;;;;;;-0.20;99.90;;;;;;5025124;28;19953;-72
2022/12/15 10:10:28;;;;;;;;;;;-0.20;99.90;;;;;;5032762;28;19909;-73
2022/12/15 10:12:55;;;;;;;;;;;-0.10;99.90;;;;;;5034991;28;20019;-74
2022/12/15 10:15:30;;;;;;;;;;;0.00;99.90;;;;;;5028348;28;19925;-73
2022/12/15 10:18:01;;;;;;;;;;;0.10;99.90;;;;;;5037957;28;19952;-74
2022/12/15 10:20:28;;;;;;;;;;;0.20;99.90;;;;;;5040915;28;19909;-73
2022/12/15 10:22:56;;;;;;;;;;;0.30;99.90;;;;;;5038085;28;19944;-72
2022/12/15 10:25:23;;;;;;;;;;;0.40;99.90;;;;;;5038924;28;20395;-74
2022/12/15 10:27:58;;;;;;;;;;;0.50;99.90;;;;;;5038104;28;19917;-74
2022/12/15 10:30:23;;;;;;;;;;;0.60;99.90;;;;;;5025715;28;19920;-73
2022/12/15 10:32:50;;;;;;;;;;;0.60;99.90;;;;;;5022211;28;20714;-72
2022/12/15 10:35:17;;;;;;;;;;;0.60;99.90;;;;;;5028904;28;19920;-71
2022/12/15 10:37:43;;;;;;;;;;;0.70;99.90;;;;;;5011114;28;19952;-73
2022/12/15 10:40:13;;;;;;;;;;;0.70;99.90;;;;;;5030582;28;19921;-72
2022/12/15 10:42:46;;;;;;;;;;;0.70;99.90;;;;;;5028166;28;19909;-72
2022/12/15 10:45:34;;;;;;;;;;;0.80;99.90;;;;;;5030823;28;20222;-73
2022/12/15 10:48:01;;;;;;;;;;;0.90;99.90;;;;;;5020156;28;19909;-70
2022/12/15 10:50:26;;;;;;;;;;;0.90;99.90;;;;;;5027411;28;19909;-72
2022/12/15 10:52:52;;;;;;;;;;;1.00;99.90;;;;;;5025096;28;20346;-73
2022/12/15 10:55:31;;;;;;;;;;;1.10;99.90;;;;;;5019857;28;19988;-73
2022/12/15 10:57:58;;;;;;;;;;;1.20;99.90;;;;;;5022792;28;20364;-73
2022/12/15 11:00:26;;;;;;;;;;;1.20;99.90;;;;;;5027905;28;19909;-73
2022/12/15 11:02:52;;;;;;;;;;;1.30;99.90;;;;;;5029298;28;19935;-71
2022/12/15 11:05:18;;;;;;;;;;;1.40;99.90;;;;;;5005733;28;20024;-73
2022/12/15 11:07:48;;;;;;;;;;;1.40;99.90;;;;;;5019854;28;19909;-73
2022/12/15 11:10:14;;;;;;;;;;;1.60;99.90;;;;;;5004984;28;19994;-74
2022/12/15 11:12:51;;;;;;;;;;;1.60;99.90;;;;;;5024123;28;20000;-73
2022/12/15 11:15:19;;;;;;;;;;;1.70;99.90;;;;;;5018472;28;19918;-73
2022/12/15 11:17:46;;;;;;;;;;;1.80;99.90;;;;;;5023796;28;19920;-72
2022/12/15 11:20:20;;;;;;;;;;;1.90;99.90;;;;;;5023391;28;19943;-72
2022/12/15 11:22:50;;;;;;;;;;;1.90;99.90;;;;;;5023993;28;19944;-71
2022/12/15 11:25:30;;;;;;;;;;;2.00;99.90;;;;;;5018647;28;19909;-73
2022/12/15 11:27:56;;;;;;;;;;;2.10;99.90;;;;;;5025455;28;19921;-73
2022/12/15 11:30:24;;;;;;;;;;;2.30;99.90;;;;;;5025736;28;19909;-73
2022/12/15 11:32:56;;;;;;;;;;;2.50;99.90;;;;;;5006472;28;19924;-72
2022/12/15 11:35:26;;;;;;;;;;;2.80;99.90;;;;;;5025363;28;20452;-74
2022/12/15 11:38:04;;;;;;;;;;;3.60;99.90;;;;;;5021787;28;19917;-74
2022/12/15 11:40:35;;;;;;;;;;;3.70;99.90;;;;;;5025455;28;19961;-74
2022/12/15 11:43:15;;;;;;;;;;;4.10;99.90;;;;;;5016086;28;19913;-74
2022/12/15 11:45:48;;;;;;;;;;;4.70;99.90;;;;;;5024524;28;20071;-73
2022/12/15 11:48:18;;;;;;;;;;;4.80;99.90;;;;;;5024937;28;19960;-74
2022/12/15 11:50:52;;;;;;;;;;;5.00;99.90;;;;;;5023606;28;20540;-75
2022/12/15 11:53:20;;;;;;;;;;;4.90;99.90;;;;;;5024092;28;20455;-73
2022/12/15 11:55:58;;;;;;;;;;;4.90;99.90;;;;;;5025385;28;19964;-75
2022/12/15 11:58:42;;;;;;;;;;;5.20;99.90;;;;;;5003972;28;19921;-74
2022/12/15 12:01:31;;;;;;;;;;;5.10;99.90;;;;;;5018953;28;20004;-75
2022/12/15 12:04:03;;;;;;;;;;;4.90;99.90;;;;;;4978722;28;19953;-74
2022/12/15 12:06:35;;;;;;;;;;;4.60;99.90;;;;;;5026070;28;20010;-73
2022/12/15 12:09:01;;;;;;;;;;;4.50;99.90;;;;;;5023327;28;20367;-74
2022/12/15 12:11:33;;;;;;;;;;;4.60;99.90;;;;;;5025585;28;19919;-75
2022/12/15 12:14:17;;;;;;;;;;;4.90;99.90;;;;;;5014453;28;19913;-73
2022/12/15 12:16:48;;;;;;;;;;;5.50;99.90;;;;;;5023888;28;19963;-75
2022/12/15 12:19:23;;;;;;;;;;;5.90;99.90;;;;;;5023138;28;19913;-76
2022/12/15 12:21:51;;;;;;;;;;;5.90;99.90;;;;;;5023342;28;19924;-75
2022/12/15 12:24:37;;;;;;;;;;;5.90;99.90;;;;;;5023333;28;19913;-75
2022/12/15 12:27:07;;;;;;;;;;;6.00;99.90;;;;;;5021029;28;19921;-76
2022/12/15 12:29:36;;;;;;;;;;;5.60;99.90;;;;;;5025327;28;20000;-75
2022/12/15 12:32:06;;;;;;;;;;;5.60;99.90;;;;;;5024598;28;19916;-75
2022/12/15 12:34:54;;;;;;;;;;;5.70;99.90;;;;;;5020799;28;19963;-76
2022/12/15 12:37:23;;;;;;;;;;;6.10;99.90;;;;;;5025711;28;20396;-75
2022/12/15 12:39:50;;;;;;;;;;;6.10;99.90;;;;;;5038600;28;20304;-75
2022/12/15 12:42:39;;;;;;;;;;;6.30;99.90;;;;;;5031505;28;19909;-74
2022/12/15 12:45:05;;;;;;;;;;;6.30;99.90;;;;;;5001383;28;20354;-76
2022/12/15 12:47:33;;;;;;;;;;;6.50;99.90;;;;;;5029358;28;19913;-73
2022/12/15 12:50:01;;;;;;;;;;;6.70;99.90;;;;;;5028866;28;19960;-74
2022/12/15 12:52:28;;;;;;;;;;;6.80;99.90;;;;;;5028444;28;19909;-74
2022/12/15 12:54:57;;;;;;;;;;;6.50;99.90;;;;;;5026657;28;19920;-75
2022/12/15 12:57:29;;;;;;;;;;;6.40;99.90;;;;;;5028100;28;19913;-75
2022/12/15 12:59:59;;;;;;;;;;;6.40;99.90;;;;;;5029174;28;20017;-75
2022/12/15 13:02:25;;;;;;;;;;;6.00;99.90;;;;;;5024014;28;19909;-77
2022/12/15 13:04:50;;;;;;;;;;;6.30;99.90;;;;;;5023619;28;19916;-77
2022/12/15 13:07:33;;;;;;;;;;;6.20;99.90;;;;;;5028774;28;19913;-76
2022/12/15 13:10:08;;;;;;;;;;;6.10;99.90;;;;;;5028669;28;19974;-74
2022/12/15 13:12:52;;;;;;;;;;;5.70;99.90;;;;;;5022307;28;19910;-76
2022/12/15 13:15:17;;;;;;;;;;;5.70;99.90;;;;;;5022077;28;19921;-76
2022/12/15 13:17:47;;;;;;;;;;;5.70;99.90;;;;;;5021940;28;19917;-76
2022/12/15 13:20:17;;;;;;;;;;;5.50;99.90;;;;;;5025207;28;19909;-77
2022/12/15 13:22:43;;;;;;;;;;;5.40;99.90;;;;;;5027428;28;19909;-76
2022/12/15 13:25:27;;;;;;;;;;;5.30;99.90;;;;;;5028184;28;20277;-76
2022/12/15 13:27:56;;;;;;;;;;;5.20;99.90;;;;;;5028783;28;19913;-75
2022/12/15 13:30:22;;;;;;;;;;;5.00;99.90;;;;;;5024418;28;19909;-77
2022/12/15 13:32:52;;;;;;;;;;;4.90;99.90;;;;;;5026593;28;19916;-76
2022/12/15 13:35:18;;;;;;;;;;;4.80;99.90;;;;;;5027585;28;20218;-74
2022/12/15 13:37:46;;;;;;;;;;;4.70;99.90;;;;;;5026579;28;20578;-76
2022/12/15 13:40:21;;;;;;;;;;;4.70;99.90;;;;;;5024714;28;19917;-75
2022/12/15 13:42:55;;;;;;;;;;;4.50;99.90;;;;;;5027043;28;19917;-76
2022/12/15 13:45:27;;;;;;;;;;;4.40;99.90;;;;;;5023549;28;19909;-75
2022/12/15 13:47:53;;;;;;;;;;;4.40;99.90;;;;;;5028350;28;20575;-76
2022/12/15 13:50:28;;;;;;;;;;;4.40;99.90;;;;;;5029465;28;20007;-76
2022/12/15 13:52:55;;;;;;;;;;;4.30;99.90;;;;;;5028864;28;19916;-75
2022/12/15 13:55:27;;;;;;;;;;;4.40;99.90;;;;;;5030710;28;19909;-76
2022/12/15 13:57:58;;;;;;;;;;;4.30;99.90;;;;;;5030698;28;19909;-76
2022/12/15 14:00:24;;;;;;;;;;;4.30;99.90;;;;;;5028305;28;19920;-76
2022/12/15 14:02:49;;;;;;;;;;;4.20;99.90;;;;;;5026433;28;19913;-75
2022/12/15 14:05:19;;;;;;;;;;;4.10;99.90;;;;;;5028440;28;19932;-77
2022/12/15 14:07:49;;;;;;;;;;;4.00;99.90;;;;;;5028148;28;19917;-76
2022/12/15 14:10:23;;;;;;;;;;;4.00;99.90;;;;;;5025580;28;19996;-77
2022/12/15 14:12:49;;;;;;;;;;;4.20;99.90;;;;;;5019148;28;19951;-76
2022/12/15 14:15:16;;;;;;;;;;;4.20;99.90;;;;;;5025845;28;19917;-76
2022/12/15 14:17:45;;;;;;;;;;;4.10;99.90;;;;;;5024326;28;19916;-77
2022/12/15 14:20:16;;;;;;;;;;;4.20;99.90;;;;;;5024690;28;19952;-75
2022/12/15 14:22:42;;;;;;;;;;;4.10;99.90;;;;;;5025771;28;20000;-75
2022/12/15 14:25:17;;;;;;;;;;;4.00;99.90;;;;;;5025787;28;20004;-76
2022/12/15 14:27:42;;;;;;;;;;;4.00;99.90;;;;;;5023733;28;19957;-77
2022/12/15 14:30:11;;;;;;;;;;;4.00;99.90;;;;;;5027803;28;20414;-77
2022/12/15 14:32:37;;;;;;;;;;;4.00;99.90;;;;;;5025886;28;20008;-77
2022/12/15 14:35:03;;;;;;;;;;;3.80;99.90;;;;;;5027235;28;20353;-76
2022/12/15 14:37:28;;;;;;;;;;;3.80;99.90;;;;;;5026208;28;19913;-76
2022/12/15 14:39:54;;;;;;;;;;;3.60;99.90;;;;;;5027817;28;19953;-77
2022/12/15 14:42:25;;;;;;;;;;;3.60;99.90;;;;;;5029169;28;19913;-76
2022/12/15 14:44:51;;;;;;;;;;;3.60;99.90;;;;;;5029315;28;19964;-76
2022/12/15 14:47:22;;;;;;;;;;;3.60;99.90;;;;;;5028565;28;19913;-75
2022/12/15 14:49:48;;;;;;;;;;;3.50;99.90;;;;;;5033039;28;20012;-76
2022/12/15 14:52:22;;;;;;;;;;;3.50;99.90;;;;;;5033134;28;20147;-76
2022/12/15 14:54:49;;;;;;;;;;;3.40;99.90;;;;;;5024680;28;19932;-75
2022/12/15 14:57:18;;;;;;;;;;;3.50;99.90;;;;;;5037727;28;19936;-77
2022/12/15 14:59:44;;;;;;;;;;;3.50;99.90;;;;;;5038964;28;19920;-75
2022/12/15 15:02:11;;;;;;;;;;;3.40;99.90;;;;;;5035540;28;19916;-74
2022/12/15 15:04:37;;;;;;;;;;;3.30;99.90;;;;;;5036468;28;19948;-77
2022/12/15 15:07:13;;;;;;;;;;;3.30;99.90;;;;;;5028735;28;19998;-76
2022/12/15 15:09:39;;;;;;;;;;;3.40;99.90;;;;;;5025363;28;20340;-77
2022/12/15 15:12:05;;;;;;;;;;;3.40;99.90;;;;;;5026530;28;20082;-77
2022/12/15 15:14:32;;;;;;;;;;;3.40;99.90;;;;;;5022601;28;19945;-77
2022/12/15 15:17:12;;;;;;;;;;;3.30;99.90;;;;;;5025467;28;19944;-77
2022/12/15 15:19:45;;;;;;;;;;;3.10;99.90;;;;;;5023278;28;19910;-76
2022/12/15 15:22:22;;;;;;;;;;;3.00;99.90;;;;;;5026441;28;20012;-78
2022/12/15 15:24:50;;;;;;;;;;;2.80;99.90;;;;;;5024257;28;19910;-77
2022/12/15 15:27:25;;;;;;;;;;;2.80;99.90;;;;;;5006821;28;19935;-77
2022/12/15 15:29:51;;;;;;;;;;;2.80;99.90;;;;;;5027651;28;19997;-77
2022/12/15 15:32:18;;;;;;;;;;;2.70;99.90;;;;;;5026777;28;19945;-77
2022/12/15 15:34:45;;;;;;;;;;;2.70;99.90;;;;;;5024568;28;19909;-76
2022/12/15 15:37:22;;;;;;;;;;;2.60;99.90;;;;;;5024494;28;19963;-76
2022/12/15 15:39:52;;;;;;;;;;;2.50;99.90;;;;;;5031836;28;20343;-75
2022/12/15 15:42:17;;;;;;;;;;;2.50;99.90;;;;;;5023664;28;20682;-74
2022/12/15 15:44:43;;;;;;;;;;;2.60;99.90;;;;;;5022019;28;19945;-75
2022/12/15 15:47:19;;;;;;;;;;;2.60;99.90;;;;;;5024567;28;19955;-75
2022/12/15 15:49:48;;;;;;;;;;;2.60;99.90;;;;;;5026102;28;21564;-76
2022/12/15 15:52:13;;;;;;;;;;;2.40;99.90;;;;;;5023144;28;20295;-74
2022/12/15 15:54:39;;;;;;;;;;;2.40;99.90;;;;;;5025550;28;19918;-75
2022/12/15 15:57:04;;;;;;;;;;;2.30;99.90;;;;;;5021088;28;19913;-76
2022/12/15 15:59:30;;;;;;;;;;;2.20;99.90;;;;;;5024675;28;19913;-76
2022/12/15 16:01:56;;;;;;;;;;;2.20;99.90;;;;;;5025865;28;19913;-76
2022/12/15 16:04:25;;;;;;;;;;;2.20;99.90;;;;;;5021172;28;19909;-76
2022/12/15 16:06:51;;;;;;;;;;;2.10;99.90;;;;;;5021443;28;19913;-75
2022/12/15 16:09:16;;;;;;;;;;;2.00;99.90;;;;;;5024360;28;19996;-75
2022/12/15 16:11:43;;;;;;;;;;;2.00;99.90;;;;;;5022724;28;19988;-77
2022/12/15 16:14:13;;;;;;;;;;;2.10;99.90;;;;;;5018454;28;19909;-76
2022/12/15 16:16:38;;;;;;;;;;;2.00;99.90;;;;;;5017429;28;19921;-77
2022/12/15 16:19:04;;;;;;;;;;;2.00;99.90;;;;;;5024576;28;19916;-74
2022/12/15 16:21:29;;;;;;;;;;;2.00;99.90;;;;;;5022472;28;20435;-73
2022/12/15 16:23:55;;;;;;;;;;;1.90;99.90;;;;;;5025478;28;19924;-75
2022/12/15 16:26:24;;;;;;;;;;;1.90;99.90;;;;;;5004542;28;20444;-76
2022/12/15 16:28:50;;;;;;;;;;;1.80;99.90;;;;;;5023858;28;19913;-76
2022/12/15 16:31:27;;;;;;;;;;;1.70;99.90;;;;;;5024193;28;19916;-74
2022/12/15 16:33:53;;;;;;;;;;;1.70;99.90;;;;;;5024487;28;19916;-75
2022/12/15 16:36:18;;;;;;;;;;;1.60;99.90;;;;;;5024720;28;19913;-76
2022/12/15 16:38:44;;;;;;;;;;;1.50;99.90;;;;;;5024240;28;20020;-76
2022/12/15 16:41:12;;;;;;;;;;;1.30;99.90;;;;;;5023117;28;19959;-76
2022/12/15 16:43:38;;;;;;;;;;;1.30;99.90;;;;;;5008976;28;20005;-76
2022/12/15 16:46:04;;;;;;;;;;;1.20;99.90;;;;;;5030521;28;19975;-77
2022/12/15 16:48:29;;;;;;;;;;;1.20;99.90;;;;;;5027584;28;20008;-75